createdAt,value
2023-10-05T00:02:12.692Z,8.64
2023-10-05T00:04:44.335Z,8.54
2023-10-05T00:07:13.088Z,8.59
2023-10-05T00:09:44.665Z,8.64
2023-10-05T00:12:19.477Z,8.52
2023-10-05T00:14:49.891Z,8.65
2023-10-05T00:17:26.893Z,8.56
2023-10-05T00:19:53.724Z,8.78
2023-10-05T00:22:21.434Z,8.61
2023-10-05T00:24:49.879Z,8.51
2023-10-05T00:27:16.775Z,8.51
2023-10-05T00:29:50.135Z,8.36
2023-10-05T00:32:17.046Z,8.14
2023-10-05T00:34:45.876Z,8.24
2023-10-05T00:37:13.171Z,8.41
2023-10-05T00:39:41.044Z,8.46
2023-10-05T00:42:07.686Z,8.23
2023-10-05T00:44:36.277Z,8.22
2023-10-05T00:47:07.561Z,8.05
2023-10-05T00:49:46.788Z,8.23
2023-10-05T00:52:16.574Z,8.16
2023-10-05T00:54:52.396Z,8.12
2023-10-05T00:57:24.432Z,7.98
2023-10-05T00:59:57.648Z,8.04
2023-10-05T01:02:24.936Z,8.06
2023-10-05T01:04:57.956Z,8.11
2023-10-05T01:07:25.951Z,7.82
2023-10-05T01:10:00.749Z,7.93
2023-10-05T01:12:30.978Z,7.82
2023-10-05T01:15:00.510Z,7.90
2023-10-05T01:17:29.053Z,7.86
2023-10-05T01:20:00.238Z,7.83
2023-10-05T01:22:34.428Z,8.03
2023-10-05T01:25:06.072Z,7.81
2023-10-05T01:27:33.513Z,8.10
2023-10-05T01:30:00.565Z,7.47
2023-10-05T01:32:27.790Z,7.79
2023-10-05T01:34:54.954Z,8.20
2023-10-05T01:37:26.917Z,8.05
2023-10-05T01:39:53.961Z,7.91
2023-10-05T01:42:20.926Z,7.90
2023-10-05T01:44:50.685Z,7.99
2023-10-05T01:47:18.154Z,7.90
2023-10-05T01:49:46.229Z,7.28
2023-10-05T01:52:19.295Z,7.30
2023-10-05T01:54:46.099Z,7.47
2023-10-05T01:57:17.189Z,7.69
2023-10-05T01:59:44.870Z,7.57
2023-10-05T02:02:12.004Z,7.51
2023-10-05T02:04:44.459Z,7.58
2023-10-05T02:07:13.033Z,7.73
2023-10-05T02:09:39.870Z,7.71
2023-10-05T02:12:08.256Z,7.73
2023-10-05T02:14:39.202Z,7.95
2023-10-05T02:17:07.440Z,7.98
2023-10-05T02:19:38.179Z,7.79
2023-10-05T02:22:12.051Z,7.72
2023-10-05T02:24:42.187Z,7.73
2023-10-05T02:27:15.821Z,7.81
2023-10-05T02:29:46.832Z,7.70
2023-10-05T02:32:16.888Z,7.84
2023-10-05T02:34:46.701Z,7.78
2023-10-05T02:37:14.047Z,7.42
2023-10-05T02:39:41.936Z,7.68
2023-10-05T02:42:16.553Z,7.79
2023-10-05T02:44:44.359Z,7.77
2023-10-05T02:47:15.106Z,7.78
2023-10-05T02:49:45.420Z,7.94
2023-10-05T02:52:14.626Z,7.95
2023-10-05T02:54:41.644Z,8.09
2023-10-05T02:57:15.869Z,7.67
2023-10-05T02:59:42.452Z,7.87
2023-10-05T03:02:09.449Z,7.73
2023-10-05T03:04:46.578Z,7.44
2023-10-05T03:07:17.777Z,7.53
2023-10-05T03:09:45.347Z,7.73
2023-10-05T03:12:12.494Z,7.92
2023-10-05T03:14:46.049Z,7.91
2023-10-05T03:17:20.297Z,7.90
2023-10-05T03:19:47.163Z,7.86
2023-10-05T03:22:14.080Z,7.54
2023-10-05T03:24:46.034Z,7.57
2023-10-05T03:27:13.238Z,7.66
2023-10-05T03:29:40.034Z,7.44
2023-10-05T03:32:09.370Z,7.12
2023-10-05T03:34:36.945Z,7.67
2023-10-05T03:37:14.250Z,7.48
2023-10-05T03:39:59.872Z,7.55
2023-10-05T03:42:26.708Z,7.39
2023-10-05T03:45:10.190Z,7.18
2023-10-05T03:47:39.299Z,7.60
2023-10-05T03:50:07.550Z,7.63
2023-10-05T03:52:34.385Z,7.71
2023-10-05T03:55:10.946Z,7.72
2023-10-05T03:57:44.243Z,7.53
2023-10-05T04:00:23.283Z,7.62
2023-10-05T04:02:58.226Z,7.58
2023-10-05T04:05:26.128Z,7.39
2023-10-05T04:07:54.144Z,7.45
2023-10-05T04:10:46.852Z,7.60
2023-10-05T04:13:16.197Z,7.57
2023-10-05T04:15:42.986Z,7.35
2023-10-05T04:18:16.403Z,7.34
2023-10-05T04:20:44.720Z,7.18
2023-10-05T04:23:16.511Z,7.06
2023-10-05T04:25:45.778Z,6.99
2023-10-05T04:28:13.052Z,7.04
2023-10-05T04:30:39.875Z,7.19
2023-10-05T04:33:06.862Z,7.22
2023-10-05T04:35:43.374Z,7.13
2023-10-05T04:38:12.171Z,7.22
2023-10-05T04:40:40.127Z,7.29
2023-10-05T04:43:12.491Z,7.44
2023-10-05T04:45:44.029Z,7.33
2023-10-05T04:48:13.798Z,7.36
2023-10-05T04:50:43.854Z,7.30
2023-10-05T04:53:11.261Z,7.20
2023-10-05T04:55:44.398Z,7.34
2023-10-05T04:58:24.961Z,7.50
2023-10-05T05:01:04.307Z,7.77
2023-10-05T05:03:49.418Z,7.88
2023-10-05T05:06:17.142Z,7.82
2023-10-05T05:08:44.842Z,7.98
2023-10-05T05:11:19.910Z,7.84
2023-10-05T05:13:48.002Z,7.88
2023-10-05T05:16:16.462Z,7.79
2023-10-05T05:18:43.910Z,7.58
2023-10-05T05:21:13.914Z,7.72
2023-10-05T05:23:48.595Z,8.21
2023-10-05T05:26:15.706Z,8.25
2023-10-05T05:28:44.919Z,8.47
2023-10-05T05:31:18.347Z,8.64
2023-10-05T05:33:45.656Z,8.81
2023-10-05T05:36:13.600Z,8.89
2023-10-05T05:38:49.297Z,8.76
2023-10-05T05:41:28.388Z,8.75
2023-10-05T05:43:55.160Z,9.20
2023-10-05T05:46:22.038Z,9.56
2023-10-05T05:48:53.866Z,9.80
2023-10-05T05:51:24.732Z,9.84
2023-10-05T05:53:53.251Z,9.96
2023-10-05T05:56:29.982Z,10.21
2023-10-05T05:58:57.110Z,10.32
2023-10-05T06:01:23.802Z,10.36
2023-10-05T06:03:51.026Z,10.47
2023-10-05T06:06:17.972Z,10.67
2023-10-05T06:08:45.513Z,10.92
2023-10-05T06:11:13.841Z,10.92
2023-10-05T06:13:41.798Z,10.96
2023-10-05T06:16:11.784Z,10.97
2023-10-05T06:18:38.853Z,11.09
2023-10-05T06:21:08.467Z,11.23
2023-10-05T06:23:35.215Z,11.14
2023-10-05T06:26:02.198Z,11.25
2023-10-05T06:28:29.122Z,11.42
2023-10-05T06:30:58.103Z,11.33
2023-10-05T06:33:26.935Z,11.43
2023-10-05T06:35:53.818Z,11.73
2023-10-05T06:38:20.877Z,11.87
2023-10-05T06:40:47.782Z,11.78
2023-10-05T06:43:16.411Z,11.87
2023-10-05T06:45:46.494Z,11.94
2023-10-05T06:48:15.902Z,11.90
2023-10-05T06:50:44.494Z,12.31
2023-10-05T06:53:14.141Z,12.33
2023-10-05T06:55:41.010Z,12.66
2023-10-05T06:58:08.730Z,13.43
2023-10-05T07:00:35.534Z,13.69
2023-10-05T07:03:08.253Z,13.74
2023-10-05T07:05:35.165Z,13.78
2023-10-05T07:08:02.061Z,13.84
2023-10-05T07:10:29.274Z,14.07
2023-10-05T07:12:56.062Z,14.07
2023-10-05T07:15:22.854Z,14.68
2023-10-05T07:17:52.450Z,14.59
2023-10-05T07:20:20.055Z,14.90
2023-10-05T07:22:47.567Z,14.97
2023-10-05T07:25:15.771Z,15.41
2023-10-05T07:27:46.569Z,15.96
2023-10-05T07:30:13.963Z,16.10
2023-10-05T07:32:41.759Z,15.97
2023-10-05T07:35:09.207Z,16.24
2023-10-05T07:37:37.253Z,16.42
2023-10-05T07:40:15.018Z,16.43
2023-10-05T07:42:42.308Z,16.34
2023-10-05T07:45:09.450Z,16.68
2023-10-05T07:47:45.893Z,16.85
2023-10-05T07:50:12.904Z,17.05
2023-10-05T07:52:41.195Z,17.16
2023-10-05T07:55:09.398Z,17.83
2023-10-05T07:57:36.154Z,17.64
2023-10-05T08:00:04.669Z,18.05
2023-10-05T08:02:31.701Z,17.90
2023-10-05T08:04:58.561Z,18.49
2023-10-05T08:07:25.338Z,18.46
2023-10-05T08:09:52.093Z,18.03
2023-10-05T08:12:19.356Z,18.24
2023-10-05T08:14:46.201Z,18.85
2023-10-05T08:17:13.689Z,18.54
2023-10-05T08:19:40.545Z,18.69
2023-10-05T08:22:07.571Z,18.74
2023-10-05T08:24:35.440Z,19.25
2023-10-05T08:27:03.363Z,19.07
2023-10-05T08:29:30.994Z,19.07
2023-10-05T08:31:58.388Z,18.95
2023-10-05T08:34:26.448Z,19.77
2023-10-05T08:36:56.420Z,19.87
2023-10-05T08:39:26.884Z,19.79
2023-10-05T08:42:04.117Z,20.20
2023-10-05T08:44:32.156Z,19.63
2023-10-05T08:46:59.464Z,20.37
2023-10-05T08:49:28.741Z,20.38
2023-10-05T08:52:04.359Z,20.17
2023-10-05T08:54:34.540Z,19.87
2023-10-05T08:57:10.393Z,20.37
2023-10-05T08:59:47.138Z,20.29
2023-10-05T09:02:20.059Z,20.44
2023-10-05T09:05:01.976Z,21.12
2023-10-05T09:07:31.160Z,21.18
2023-10-05T09:09:58.309Z,20.96
2023-10-05T09:12:44.134Z,20.51
2023-10-05T09:15:22.757Z,20.56
2023-10-05T09:18:07.512Z,20.92
2023-10-05T09:20:37.651Z,21.39
2023-10-05T09:23:09.409Z,21.26
2023-10-05T09:25:41.908Z,21.76
2023-10-05T09:28:15.765Z,21.95
2023-10-05T09:30:57.053Z,21.55
2023-10-05T09:33:26.918Z,21.57
2023-10-05T09:36:06.699Z,22.02
2023-10-05T09:38:42.385Z,22.26
2023-10-05T09:41:09.520Z,21.30
2023-10-05T09:43:40.091Z,21.70
2023-10-05T09:46:11.590Z,22.36
2023-10-05T09:48:39.900Z,21.77
2023-10-05T09:51:15.315Z,22.07
2023-10-05T09:53:45.205Z,21.91
2023-10-05T09:56:19.192Z,22.07
2023-10-05T09:58:51.700Z,22.36
2023-10-05T10:01:24.216Z,21.87
2023-10-05T10:03:53.349Z,22.18
2023-10-05T10:06:21.226Z,22.67
2023-10-05T10:08:52.508Z,22.93
2023-10-05T10:11:19.870Z,22.82
2023-10-05T10:14:02.428Z,23.22
2023-10-05T10:16:30.147Z,23.44
2023-10-05T10:19:07.662Z,24.04
2023-10-05T10:21:37.446Z,23.74
2023-10-05T10:24:08.265Z,23.04
2023-10-05T10:26:45.613Z,23.87
2023-10-05T10:29:17.376Z,24.81
2023-10-05T10:31:45.427Z,24.79
2023-10-05T10:34:30.555Z,24.82
2023-10-05T10:36:58.289Z,24.87
2023-10-05T10:39:32.971Z,25.21
2023-10-05T10:42:06.116Z,25.60
2023-10-05T10:44:56.360Z,25.66
2023-10-05T10:47:28.456Z,25.72
2023-10-05T10:50:24.410Z,24.97
2023-10-05T10:52:51.739Z,25.37
2023-10-05T10:55:21.286Z,25.14
2023-10-05T10:57:48.638Z,25.82
2023-10-05T11:00:36.647Z,25.94
2023-10-05T11:03:13.235Z,25.61
2023-10-05T11:05:45.635Z,24.98
2023-10-05T11:08:21.729Z,24.55
2023-10-05T11:11:11.044Z,24.73
2023-10-05T11:14:01.531Z,25.22
2023-10-05T11:16:36.947Z,26.59
2023-10-05T11:21:48.133Z,26.53
2023-10-05T11:26:55.982Z,27.05
2023-10-05T11:29:29.567Z,27.09
2023-10-05T11:32:07.032Z,27.26
2023-10-05T11:35:18.046Z,26.79
2023-10-05T11:37:46.097Z,27.17
2023-10-05T11:40:25.158Z,27.32
2023-10-05T11:42:52.271Z,27.50
2023-10-05T11:45:19.796Z,26.79
2023-10-05T11:47:54.528Z,27.41
2023-10-05T11:50:34.131Z,27.58
2023-10-05T11:53:07.793Z,27.73
2023-10-05T11:55:36.945Z,27.48
2023-10-05T11:58:04.125Z,27.20
2023-10-05T12:00:32.814Z,27.06
2023-10-05T12:02:59.778Z,26.25
2023-10-05T12:05:30.111Z,26.68
2023-10-05T12:08:00.871Z,27.12
2023-10-05T12:10:27.713Z,27.40
2023-10-05T12:12:54.642Z,27.50
2023-10-05T12:15:24.048Z,26.81
2023-10-05T12:17:51.088Z,26.68
2023-10-05T12:20:19.499Z,27.21
2023-10-05T12:22:46.630Z,27.23
2023-10-05T12:25:16.476Z,27.28
2023-10-05T12:27:43.502Z,27.71
2023-10-05T12:30:13.133Z,27.95
2023-10-05T12:32:40.418Z,27.91
2023-10-05T12:35:18.180Z,27.37
2023-10-05T12:37:46.056Z,27.52
2023-10-05T12:40:27.646Z,27.91
2023-10-05T12:45:25.429Z,27.58
2023-10-05T12:47:58.738Z,27.28
2023-10-05T12:50:31.682Z,27.54
2023-10-05T12:53:01.683Z,27.77
2023-10-05T12:55:30.525Z,27.35
2023-10-05T12:57:58.308Z,27.42
2023-10-05T13:00:45.820Z,27.55
2023-10-05T13:03:13.935Z,26.65
2023-10-05T13:05:44.962Z,26.53
2023-10-05T13:08:13.085Z,26.26
2023-10-05T13:10:40.238Z,26.36
2023-10-05T13:13:19.712Z,25.94
2023-10-05T13:15:46.827Z,25.98
2023-10-05T13:18:19.842Z,26.14
2023-10-05T13:20:55.343Z,26.47
2023-10-05T13:23:23.438Z,26.85
2023-10-05T13:25:51.803Z,27.15
2023-10-05T13:28:27.979Z,26.75
2023-10-05T13:30:58.556Z,26.77
2023-10-05T13:33:33.340Z,26.80
2023-10-05T13:36:00.234Z,26.59
2023-10-05T13:38:30.275Z,26.68
2023-10-05T13:41:15.570Z,26.76
2023-10-05T13:43:42.763Z,26.59
2023-10-05T13:46:20.396Z,26.35
2023-10-05T13:48:57.393Z,26.43
2023-10-05T13:51:24.802Z,26.20
2023-10-05T13:53:55.929Z,26.02
2023-10-05T13:56:28.694Z,25.88
2023-10-05T13:59:03.810Z,25.94
2023-10-05T14:01:39.848Z,25.71
2023-10-05T14:04:09.073Z,25.60
2023-10-05T14:06:37.754Z,25.14
2023-10-05T14:09:08.320Z,25.08
2023-10-05T14:11:39.520Z,25.30
2023-10-05T14:14:07.436Z,25.16
2023-10-05T14:16:50.608Z,24.97
2023-10-05T14:19:23.976Z,24.80
2023-10-05T14:21:54.059Z,24.73
2023-10-05T14:24:22.315Z,24.78
2023-10-05T14:26:50.265Z,24.85
2023-10-05T14:29:18.821Z,24.76
2023-10-05T14:31:49.309Z,24.53
2023-10-05T14:34:18.757Z,24.41
2023-10-05T14:36:46.343Z,24.42
2023-10-05T14:39:22.710Z,24.01
2023-10-05T14:41:52.886Z,24.36
2023-10-05T14:44:19.580Z,24.27
2023-10-05T14:46:51.022Z,24.15
2023-10-05T14:49:23.069Z,24.20
2023-10-05T14:51:51.110Z,24.08
2023-10-05T14:54:18.856Z,24.00
2023-10-05T14:56:45.716Z,23.78
2023-10-05T14:59:13.748Z,23.43
2023-10-05T15:01:42.099Z,23.35
2023-10-05T15:04:09.461Z,23.37
2023-10-05T15:06:36.390Z,23.04
2023-10-05T15:09:03.911Z,23.24
2023-10-05T15:11:31.129Z,23.02
2023-10-05T15:13:59.490Z,22.79
2023-10-05T15:16:27.848Z,22.84
2023-10-05T15:18:55.423Z,22.71
2023-10-05T15:21:22.092Z,22.76
2023-10-05T15:23:49.015Z,22.54
2023-10-05T15:26:18.221Z,22.66
2023-10-05T15:28:45.320Z,22.20
2023-10-05T15:31:12.408Z,21.95
2023-10-05T15:33:39.392Z,22.13
2023-10-05T15:36:06.522Z,22.37
2023-10-05T15:38:35.313Z,22.17
2023-10-05T15:41:05.372Z,21.97
2023-10-05T15:43:32.754Z,21.92
2023-10-05T15:46:01.536Z,21.82
2023-10-05T15:48:28.896Z,21.74
2023-10-05T15:50:56.801Z,21.74
2023-10-05T15:53:23.503Z,21.57
2023-10-05T15:55:50.374Z,21.53
2023-10-05T15:58:17.487Z,21.24
2023-10-05T16:00:44.394Z,20.87
2023-10-05T16:03:12.366Z,20.60
2023-10-05T16:05:40.419Z,20.68
2023-10-05T16:08:08.160Z,20.66
2023-10-05T16:10:36.178Z,20.51
2023-10-05T16:13:08.920Z,20.42
2023-10-05T16:15:36.302Z,20.22
2023-10-05T16:18:04.099Z,20.05
2023-10-05T16:20:32.453Z,19.59
2023-10-05T16:23:07.052Z,19.30
2023-10-05T16:25:38.025Z,19.32
2023-10-05T16:28:07.329Z,19.44
2023-10-05T16:30:34.268Z,19.39
2023-10-05T16:33:02.608Z,19.43
2023-10-05T16:35:29.492Z,19.21
2023-10-05T16:37:57.502Z,19.03
2023-10-05T16:40:29.970Z,19.02
2023-10-05T16:42:58.843Z,18.89
2023-10-05T16:45:25.888Z,18.37
2023-10-05T16:47:53.565Z,18.32
2023-10-05T16:50:21.547Z,18.35
2023-10-05T16:52:49.359Z,17.80
2023-10-05T16:55:17.025Z,17.44
2023-10-05T16:57:46.806Z,17.16
2023-10-05T17:00:17.951Z,17.26
2023-10-05T17:02:45.673Z,17.06
2023-10-05T17:05:17.136Z,17.39
2023-10-05T17:07:48.157Z,17.52
2023-10-05T17:10:15.338Z,17.48
2023-10-05T17:12:42.435Z,17.02
2023-10-05T17:15:09.448Z,16.80
2023-10-05T17:17:36.471Z,16.85
2023-10-05T17:20:03.800Z,16.76
2023-10-05T17:22:30.539Z,15.99
2023-10-05T17:24:57.706Z,15.98
2023-10-05T17:27:25.190Z,16.08
2023-10-05T17:29:52.471Z,15.90
2023-10-05T17:32:19.594Z,16.13
2023-10-05T17:34:53.707Z,16.12
2023-10-05T17:37:20.989Z,15.85
2023-10-05T17:39:47.920Z,15.53
2023-10-05T17:42:14.625Z,15.51
2023-10-05T17:44:41.672Z,15.32
2023-10-05T17:47:09.377Z,15.24
2023-10-05T17:49:40.321Z,15.34
2023-10-05T17:52:08.731Z,15.41
2023-10-05T17:54:35.629Z,15.62
2023-10-05T17:57:03.564Z,15.34
2023-10-05T17:59:30.383Z,15.40
2023-10-05T18:01:57.373Z,15.09
2023-10-05T18:04:25.897Z,14.90
2023-10-05T18:06:52.724Z,14.71
2023-10-05T18:09:19.555Z,14.88
2023-10-05T18:11:47.150Z,15.19
2023-10-05T18:14:14.051Z,15.04
2023-10-05T18:16:42.953Z,14.57
2023-10-05T18:19:12.460Z,14.26
2023-10-05T18:21:39.347Z,14.13
2023-10-05T18:24:06.725Z,14.04
2023-10-05T18:26:33.596Z,14.00
2023-10-05T18:29:03.316Z,14.22
2023-10-05T18:31:31.583Z,14.28
2023-10-05T18:33:58.639Z,14.21
2023-10-05T18:36:25.809Z,14.20
2023-10-05T18:38:52.796Z,13.95
2023-10-05T18:41:21.204Z,14.02
2023-10-05T18:43:51.558Z,14.12
2023-10-05T18:46:19.384Z,13.86
2023-10-05T18:48:46.168Z,13.85
2023-10-05T18:51:12.853Z,13.85
2023-10-05T18:53:40.833Z,13.48
2023-10-05T18:56:08.333Z,13.38
2023-10-05T18:58:36.640Z,13.37
2023-10-05T19:01:03.710Z,13.31
2023-10-05T19:03:30.672Z,13.55
2023-10-05T19:05:57.525Z,13.55
2023-10-05T19:08:24.336Z,13.42
2023-10-05T19:10:51.172Z,13.46
2023-10-05T19:13:17.837Z,13.57
2023-10-05T19:15:44.567Z,13.59
2023-10-05T19:18:11.357Z,13.69
2023-10-05T19:20:38.118Z,13.62
2023-10-05T19:23:07.607Z,13.56
2023-10-05T19:25:34.321Z,13.58
2023-10-05T19:28:01.208Z,13.62
2023-10-05T19:30:27.938Z,13.60
2023-10-05T19:32:54.784Z,13.25
2023-10-05T19:35:22.390Z,12.90
2023-10-05T19:37:49.168Z,12.76
2023-10-05T19:40:15.996Z,12.66
2023-10-05T19:42:42.966Z,12.55
2023-10-05T19:45:11.865Z,12.65
2023-10-05T19:47:38.664Z,12.54
2023-10-05T19:50:07.122Z,12.52
2023-10-05T19:52:34.027Z,12.61
2023-10-05T19:55:00.915Z,12.71
2023-10-05T19:57:27.573Z,12.57
2023-10-05T19:59:55.658Z,12.35
2023-10-05T20:02:22.456Z,12.46
2023-10-05T20:04:51.946Z,12.18
2023-10-05T20:07:19.322Z,12.22
2023-10-05T20:09:46.032Z,12.22
2023-10-05T20:12:12.960Z,12.27
2023-10-05T20:14:39.704Z,11.91
2023-10-05T20:17:06.987Z,12.04
2023-10-05T20:19:34.332Z,11.79
2023-10-05T20:22:01.753Z,11.72
2023-10-05T20:24:28.618Z,11.97
2023-10-05T20:26:55.493Z,12.04
2023-10-05T20:29:22.699Z,11.85
2023-10-05T20:31:49.450Z,12.10
2023-10-05T20:34:22.942Z,11.87
2023-10-05T20:36:53.718Z,11.71
2023-10-05T20:39:23.551Z,11.92
2023-10-05T20:41:55.318Z,11.65
2023-10-05T20:44:22.301Z,11.57
2023-10-05T20:46:49.568Z,11.46
2023-10-05T20:49:16.280Z,11.63
2023-10-05T20:51:43.016Z,11.81
2023-10-05T20:54:10.630Z,11.94
2023-10-05T20:56:37.410Z,11.91
2023-10-05T20:59:04.938Z,11.62
2023-10-05T21:01:31.639Z,11.70
2023-10-05T21:03:58.409Z,11.55
2023-10-05T21:06:26.131Z,11.35
2023-10-05T21:08:53.283Z,11.09
2023-10-05T21:11:20.046Z,10.74
2023-10-05T21:13:47.005Z,10.74
2023-10-05T21:16:13.778Z,10.51
2023-10-05T21:18:40.638Z,10.61
2023-10-05T21:21:07.283Z,10.58
2023-10-05T21:23:33.947Z,10.53
2023-10-05T21:26:00.666Z,10.68
2023-10-05T21:28:27.365Z,11.08
2023-10-05T21:30:55.303Z,10.69
2023-10-05T21:33:22.145Z,10.84
2023-10-05T21:35:48.862Z,10.98
2023-10-05T21:38:15.589Z,10.90
2023-10-05T21:40:42.388Z,10.61
2023-10-05T21:43:09.095Z,10.79
2023-10-05T21:45:35.919Z,10.67
2023-10-05T21:48:02.755Z,10.48
2023-10-05T21:50:29.650Z,10.44
2023-10-05T21:52:56.543Z,10.56
2023-10-05T21:55:23.390Z,10.59
2023-10-05T21:57:50.196Z,10.57
2023-10-05T22:00:49.055Z,10.57
2023-10-05T22:03:15.727Z,10.50
2023-10-05T22:05:42.681Z,10.56
2023-10-05T22:08:09.747Z,10.65
2023-10-05T22:10:37.325Z,10.60
2023-10-05T22:13:04.739Z,10.84
2023-10-05T22:15:32.400Z,10.73
2023-10-05T22:18:00.624Z,10.37
2023-10-05T22:20:27.976Z,10.59
2023-10-05T22:22:57.516Z,10.76
2023-10-05T22:25:24.381Z,10.77
2023-10-05T22:27:51.555Z,10.70
2023-10-05T22:30:18.822Z,10.77
2023-10-05T22:32:46.341Z,10.91
2023-10-05T22:35:13.208Z,10.66
2023-10-05T22:37:40.034Z,10.77
2023-10-05T22:40:07.322Z,10.49
2023-10-05T22:42:35.593Z,10.45
2023-10-05T22:45:02.252Z,10.15
2023-10-05T22:47:29.107Z,10.17
2023-10-05T22:49:57.516Z,10.01
2023-10-05T22:52:25.879Z,10.02
2023-10-05T22:54:56.442Z,9.76
2023-10-05T22:57:24.294Z,9.72
2023-10-05T22:59:51.717Z,9.50
2023-10-05T23:02:18.654Z,9.46
2023-10-05T23:04:45.403Z,9.66
2023-10-05T23:07:12.577Z,9.59
2023-10-05T23:09:40.196Z,9.25
2023-10-05T23:12:12.245Z,9.26
2023-10-05T23:14:39.682Z,9.37
2023-10-05T23:17:09.304Z,9.28
2023-10-05T23:19:36.851Z,9.41
2023-10-05T23:22:04.307Z,9.52
2023-10-05T23:24:32.033Z,9.65
2023-10-05T23:27:00.558Z,9.40
2023-10-05T23:29:30.087Z,9.27
2023-10-05T23:31:58.237Z,9.39
2023-10-05T23:34:36.850Z,9.46
2023-10-05T23:37:09.569Z,9.59
2023-10-05T23:39:36.613Z,9.53
2023-10-05T23:42:12.391Z,9.42
2023-10-05T23:44:42.876Z,9.47
2023-10-05T23:47:24.110Z,9.31
2023-10-05T23:49:55.009Z,9.39
2023-10-05T23:52:22.521Z,9.76
2023-10-05T23:54:49.284Z,9.58
2023-10-05T23:57:21.299Z,9.77
2023-10-05T23:59:48.743Z,9.96
